New Clarkson, Texas
Current Conditions -  °F | °C
As of 3:35 AM on Friday 31 Oct 2014 (Local Time) from KT35 Reporting Station
Thunderstorm Thunderstorm  
Wind Chill: 62°   Ceiling: Unl
Heat Index: 62°   Visibility: 10mi
Dew Point: 56°   Wind: 6mph
Humidity: 81%   Direction: 320°NW
Pressure: 30.15"   Gusts: NA
Location:  31.0981°N, 96.99°W
Report Text: KT35 310835Z AUTO 32005KT 10SM VCTS CLR 17/13 A3015 RMK AO2 T01660133
Loading
Personal Weather Stations






























Interactive Weather Map
Tropical Storm Tracking
New forecast layout! Learn more

10-Day Weather Forecast

Advertisements
Track Severe Weather on mobile